Portada
METAR-TAF:

METAR-TAF

Aeroports :

Santiago de Cuba, Cuba

latitud: 19-58N, longitud: 075-51W, altitud: 69 m

Observació

L'informe es va fer fa 40 minuts, a les 13:50 UTC
Vent 3 kt amb direcció variable
Temperatura 29°C
Humitat 70%
Pressió 1016 hPa
Visibilitat: 9000 m
Escasses núvols a una alçada de 2000 ft

METAR: MUCU 261350Z VRB03KT 9000 FEW020 29/23 Q1016

Hora: 10:30 (14:30 UTC)

Pronòstic

L'informe es va fer fa 3 hores i 30 minuts, a les 11:00 UTC
Pronòstic vàlid del 26 a les 12 UTC al 27 a les 12 UTC
Vent 3 kt amb direcció variable
Visibilitat: 9000 m
Núvols disperses a una alçada de 2000 ft
Temporalment
l' 26 a les 18 UTC al 26 a les 23 UTC
Vent 9 kt del Sud/Sud-Oest
Visibilitat: 5000 m
Núvols disperses a una alçada de 1800 ft, Cumulonimbus.
Cel ennuvolat a una alçada de 2000 ft
pluja

TAF: MUCU 261100Z 2612/2712 VRB03KT 9000 SCT020 TEMPO 2618/2623 20009KT 5000 RA SCT018CB BKN020

Observacions i pronòstics meteorològics de més de 4000 aeroports (METAR i TAF).

Les estacions disponibles són els punts grocs i vermells al mapa.

Posi el ratolí al punt desitjat per veure el nom de l'estació.

Feu clic per veure les observacions i els pronòstics meteorològics.

Per canviar el mapa: feu clic els botons verds amb una creu de color negre per apropar; al botó verd amb un guió per allunyar la imatge; o en les fletxes verdes per a mapes adjacents.


METAR-TAF: